createdAt,value
2023-05-25T00:02:25.015Z,79.34
2023-05-25T00:04:52.419Z,79.86
2023-05-25T00:07:19.210Z,79.77
2023-05-25T00:09:46.711Z,80.31
2023-05-25T00:12:14.371Z,80.16
2023-05-25T00:14:41.161Z,79.66
2023-05-25T00:17:10.683Z,79.65
2023-05-25T00:19:38.265Z,79.82
2023-05-25T00:22:05.155Z,79.98
2023-05-25T00:24:31.964Z,79.32
2023-05-25T00:26:58.913Z,79.45
2023-05-25T00:29:26.206Z,79.78
2023-05-25T00:31:53.465Z,79.47
2023-05-25T00:34:20.196Z,79.40
2023-05-25T00:36:50.001Z,79.70
2023-05-25T00:39:17.786Z,78.92
2023-05-25T00:41:45.379Z,78.97
2023-05-25T00:44:14.849Z,79.10
2023-05-25T00:46:46.186Z,79.15
2023-05-25T00:49:14.147Z,78.85
2023-05-25T00:51:41.209Z,78.62
2023-05-25T00:54:07.866Z,78.87
2023-05-25T00:56:38.051Z,78.44
2023-05-25T00:59:06.895Z,78.54
2023-05-25T01:01:40.355Z,78.33
2023-05-25T01:04:10.358Z,78.32
2023-05-25T01:06:37.710Z,78.35
2023-05-25T01:09:05.051Z,77.77
2023-05-25T01:11:39.963Z,77.97
2023-05-25T01:14:06.474Z,78.24
2023-05-25T01:16:33.191Z,77.72
2023-05-25T01:18:59.974Z,78.19
2023-05-25T01:21:42.344Z,77.97
2023-05-25T01:24:22.747Z,77.78
2023-05-25T01:27:03.831Z,77.78
2023-05-25T01:29:30.479Z,77.78
2023-05-25T01:31:57.147Z,77.68
2023-05-25T01:34:23.884Z,77.85
2023-05-25T01:36:50.996Z,77.75
2023-05-25T01:39:22.048Z,77.65
2023-05-25T01:41:48.810Z,77.49
2023-05-25T01:44:15.806Z,77.75
2023-05-25T01:46:42.497Z,77.54
2023-05-25T01:49:27.584Z,77.39
2023-05-25T01:51:57.139Z,77.43
2023-05-25T01:54:28.840Z,77.91
2023-05-25T01:56:56.430Z,77.37
2023-05-25T01:59:23.077Z,77.76
2023-05-25T02:01:52.783Z,77.03
2023-05-25T02:04:19.899Z,77.18
2023-05-25T02:06:49.041Z,77.34
2023-05-25T02:09:16.161Z,77.08
2023-05-25T02:11:42.790Z,76.90
2023-05-25T02:14:11.014Z,76.52
2023-05-25T02:16:38.031Z,76.66
2023-05-25T02:19:04.880Z,76.73
2023-05-25T02:21:31.537Z,76.56
2023-05-25T02:23:58.196Z,76.74
2023-05-25T02:26:24.840Z,76.61
2023-05-25T02:28:51.729Z,76.17
2023-05-25T02:31:18.919Z,76.25
2023-05-25T02:33:45.565Z,75.98
2023-05-25T02:36:12.221Z,75.79
2023-05-25T02:38:38.901Z,75.96
2023-05-25T02:41:05.605Z,76.24
2023-05-25T02:43:32.735Z,76.23
2023-05-25T02:45:59.384Z,76.41
2023-05-25T02:48:26.228Z,76.21
2023-05-25T02:50:52.891Z,76.61
2023-05-25T02:53:19.581Z,76.69
2023-05-25T02:55:46.447Z,76.43
2023-05-25T02:58:13.315Z,77.26
2023-05-25T03:00:40.194Z,76.91
2023-05-25T03:03:06.938Z,77.45
2023-05-25T03:05:35.534Z,77.35
2023-05-25T03:08:02.220Z,77.42
2023-05-25T03:10:28.854Z,77.27
2023-05-25T03:12:55.578Z,76.99
2023-05-25T03:15:23.258Z,77.12
2023-05-25T03:17:50.519Z,77.09
2023-05-25T03:20:17.232Z,77.47
2023-05-25T03:22:43.958Z,77.31
2023-05-25T03:25:13.594Z,77.40
2023-05-25T03:27:40.573Z,77.41
2023-05-25T03:30:08.108Z,77.66
2023-05-25T03:32:34.751Z,77.39
2023-05-25T03:35:01.391Z,77.11
2023-05-25T03:37:28.141Z,77.05
2023-05-25T03:39:54.854Z,76.75
2023-05-25T03:42:21.494Z,77.17
2023-05-25T03:44:48.166Z,76.67
2023-05-25T03:47:14.785Z,76.54
2023-05-25T03:49:41.617Z,76.60
2023-05-25T03:52:08.654Z,76.99
2023-05-25T03:54:35.602Z,76.71
2023-05-25T03:57:09.794Z,77.05
2023-05-25T03:59:36.505Z,77.33
2023-05-25T04:02:03.203Z,77.17
2023-05-25T04:04:30.124Z,76.89
2023-05-25T04:06:57.009Z,76.91
2023-05-25T04:09:23.644Z,76.96
2023-05-25T04:12:13.357Z,77.21
2023-05-25T04:14:40.001Z,77.28
2023-05-25T04:17:06.732Z,76.98
2023-05-25T04:19:33.377Z,77.03
2023-05-25T04:22:00.068Z,77.47
2023-05-25T04:24:27.649Z,77.14
2023-05-25T04:26:56.916Z,77.15
2023-05-25T04:29:23.604Z,77.55
2023-05-25T04:31:51.759Z,77.64
2023-05-25T04:34:18.517Z,77.92
2023-05-25T04:36:45.220Z,77.99
2023-05-25T04:39:11.913Z,78.28
2023-05-25T04:41:39.332Z,78.37
2023-05-25T04:44:09.524Z,78.39
2023-05-25T04:46:37.558Z,78.08
2023-05-25T04:49:05.722Z,78.27
2023-05-25T04:51:32.743Z,78.58
2023-05-25T04:53:59.893Z,78.95
2023-05-25T04:56:27.013Z,79.06
2023-05-25T04:58:53.731Z,79.25
2023-05-25T05:01:20.750Z,79.59
2023-05-25T05:03:47.651Z,79.51
2023-05-25T05:06:14.415Z,80.06
2023-05-25T05:08:41.885Z,79.94
2023-05-25T05:11:08.554Z,80.11
2023-05-25T05:13:35.247Z,79.95
2023-05-25T05:16:01.920Z,79.94
2023-05-25T05:18:29.221Z,79.44
2023-05-25T05:20:56.126Z,79.32
2023-05-25T05:23:22.825Z,79.64
2023-05-25T05:25:49.489Z,80.24
2023-05-25T05:28:16.132Z,80.00
2023-05-25T05:30:44.211Z,80.56
2023-05-25T05:33:10.965Z,81.07
2023-05-25T05:35:37.732Z,80.62
2023-05-25T05:38:05.279Z,80.19
2023-05-25T05:40:31.943Z,79.46
2023-05-25T05:42:58.573Z,79.98
2023-05-25T05:45:25.588Z,80.28
2023-05-25T05:47:52.342Z,79.84
2023-05-25T05:50:19.087Z,79.95
2023-05-25T05:52:45.856Z,80.01
2023-05-25T05:55:12.562Z,79.74
2023-05-25T05:57:39.221Z,80.01
2023-05-25T06:00:07.141Z,80.16
2023-05-25T06:02:34.026Z,79.83
2023-05-25T06:05:01.643Z,80.03
2023-05-25T06:07:29.126Z,78.94
2023-05-25T06:09:56.221Z,78.63
2023-05-25T06:12:22.972Z,77.70
2023-05-25T06:14:52.180Z,77.70
2023-05-25T06:17:19.304Z,77.49
2023-05-25T06:19:46.158Z,78.22
2023-05-25T06:22:12.804Z,77.96
2023-05-25T06:24:39.452Z,77.66
2023-05-25T06:27:06.287Z,77.71
2023-05-25T06:29:33.040Z,77.56
2023-05-25T06:31:59.816Z,77.58
2023-05-25T06:34:26.650Z,77.82
2023-05-25T06:36:53.313Z,77.86
2023-05-25T06:39:20.384Z,78.55
2023-05-25T06:41:47.034Z,78.38
2023-05-25T06:44:13.688Z,77.75
2023-05-25T06:46:40.414Z,77.87
2023-05-25T06:49:07.118Z,77.45
2023-05-25T06:51:33.862Z,76.76
2023-05-25T06:54:00.597Z,77.24
2023-05-25T06:56:28.027Z,76.87
2023-05-25T06:58:54.976Z,77.71
2023-05-25T07:01:21.703Z,78.00
2023-05-25T07:03:48.367Z,77.79
2023-05-25T07:06:17.074Z,77.81
2023-05-25T07:08:43.747Z,77.89
2023-05-25T07:11:12.540Z,77.82
2023-05-25T07:13:39.397Z,78.24
2023-05-25T07:16:06.297Z,78.18
2023-05-25T07:18:33.493Z,78.21
2023-05-25T07:21:01.265Z,78.53
2023-05-25T07:23:27.973Z,78.32
2023-05-25T07:25:54.838Z,77.94
2023-05-25T07:28:21.470Z,77.80
2023-05-25T07:30:48.271Z,77.35
2023-05-25T07:33:14.959Z,76.99
2023-05-25T07:35:41.791Z,77.67
2023-05-25T07:38:09.414Z,77.24
2023-05-25T07:40:37.140Z,77.94
2023-05-25T07:43:08.148Z,77.62
2023-05-25T07:45:35.110Z,77.20
2023-05-25T07:48:01.860Z,76.82
2023-05-25T07:50:29.440Z,77.20
2023-05-25T07:52:59.860Z,76.33
2023-05-25T07:55:26.989Z,76.28
2023-05-25T07:57:53.676Z,76.19
2023-05-25T08:00:20.806Z,76.10
2023-05-25T08:02:47.592Z,76.18
2023-05-25T08:05:14.450Z,75.37
2023-05-25T08:07:42.814Z,75.37
2023-05-25T08:10:10.105Z,75.64
2023-05-25T08:12:47.649Z,76.00
2023-05-25T08:15:15.177Z,75.94
2023-05-25T08:17:42.221Z,75.29
2023-05-25T08:20:09.475Z,75.07
2023-05-25T08:22:36.260Z,75.00
2023-05-25T08:25:03.954Z,75.37
2023-05-25T08:27:32.265Z,75.17
2023-05-25T08:30:00.607Z,74.94
2023-05-25T08:32:27.300Z,74.57
2023-05-25T08:34:54.022Z,73.99
2023-05-25T08:37:22.726Z,73.00
2023-05-25T08:39:49.363Z,73.23
2023-05-25T08:42:16.038Z,73.33
2023-05-25T08:44:43.016Z,73.57
2023-05-25T08:47:09.697Z,74.25
2023-05-25T08:49:38.428Z,73.76
2023-05-25T08:52:06.018Z,72.72
2023-05-25T08:54:36.648Z,72.90
2023-05-25T08:57:12.287Z,72.43
2023-05-25T08:59:44.898Z,73.28
2023-05-25T09:02:14.665Z,73.39
2023-05-25T09:04:42.955Z,72.82
2023-05-25T09:07:11.147Z,73.74
2023-05-25T09:09:39.003Z,73.49
2023-05-25T09:12:09.022Z,73.62
2023-05-25T09:14:37.893Z,73.36
2023-05-25T09:17:04.842Z,73.43
2023-05-25T09:19:31.543Z,73.43
2023-05-25T09:22:10.725Z,73.29
2023-05-25T09:24:44.224Z,72.90
2023-05-25T09:27:11.411Z,73.82
2023-05-25T09:29:38.384Z,73.64
2023-05-25T09:32:06.806Z,72.92
2023-05-25T09:34:36.404Z,71.57
2023-05-25T09:37:21.623Z,71.67
2023-05-25T09:39:48.322Z,71.46
2023-05-25T09:42:15.015Z,72.40
2023-05-25T09:44:42.976Z,72.88
2023-05-25T09:47:09.792Z,73.21
2023-05-25T09:49:36.628Z,73.84
2023-05-25T09:52:03.307Z,71.33
2023-05-25T09:54:30.003Z,70.62
2023-05-25T09:56:56.822Z,71.08
2023-05-25T09:59:23.639Z,69.48
2023-05-25T10:01:53.794Z,69.36
2023-05-25T10:04:21.054Z,69.53
2023-05-25T10:06:49.867Z,70.61
2023-05-25T10:09:17.860Z,70.82
2023-05-25T10:11:44.988Z,69.88
2023-05-25T10:14:12.554Z,68.81
2023-05-25T10:16:39.652Z,68.37
2023-05-25T10:19:22.112Z,69.16
2023-05-25T10:21:56.155Z,68.58
2023-05-25T10:24:35.208Z,69.58
2023-05-25T10:29:51.960Z,69.31
2023-05-25T10:32:18.730Z,68.41
2023-05-25T10:34:46.176Z,68.30
2023-05-25T10:37:12.988Z,67.04
2023-05-25T10:39:39.635Z,66.48
2023-05-25T10:42:06.682Z,66.62
2023-05-25T10:44:33.417Z,66.10
2023-05-25T10:47:00.150Z,66.95
2023-05-25T10:49:33.832Z,65.94
2023-05-25T10:52:00.866Z,65.14
2023-05-25T10:54:31.982Z,64.67
2023-05-25T10:57:12.003Z,64.90
2023-05-25T10:59:42.578Z,66.23
2023-05-25T11:02:09.568Z,64.74
2023-05-25T11:04:37.845Z,64.47
2023-05-25T11:07:08.066Z,64.06
2023-05-25T11:09:43.590Z,64.18
2023-05-25T11:12:22.605Z,63.41
2023-05-25T11:15:17.054Z,61.59
2023-05-25T11:18:02.846Z,61.88
2023-05-25T11:20:30.260Z,61.05
2023-05-25T11:22:57.586Z,61.93
2023-05-25T11:25:40.442Z,59.83
2023-05-25T11:28:07.753Z,61.09
2023-05-25T11:30:34.594Z,62.00
2023-05-25T11:33:04.741Z,61.53
2023-05-25T11:35:33.975Z,60.36
2023-05-25T11:38:01.288Z,62.14
2023-05-25T11:40:31.384Z,62.15
2023-05-25T11:43:00.636Z,62.11
2023-05-25T11:45:33.551Z,62.10
2023-05-25T11:48:00.440Z,60.23
2023-05-25T11:50:28.347Z,60.37
2023-05-25T11:52:55.170Z,60.46
2023-05-25T11:55:21.963Z,62.07
2023-05-25T11:57:55.740Z,61.89
2023-05-25T12:00:27.449Z,61.52
2023-05-25T12:02:54.430Z,61.07
2023-05-25T12:05:21.432Z,59.93
2023-05-25T12:07:48.238Z,61.57
2023-05-25T12:10:18.319Z,61.29
2023-05-25T12:12:45.609Z,61.35
2023-05-25T12:15:15.158Z,61.68
2023-05-25T12:17:43.030Z,62.09
2023-05-25T12:20:13.540Z,62.02
2023-05-25T12:22:41.871Z,62.33
2023-05-25T12:25:12.317Z,61.15
2023-05-25T12:27:40.377Z,61.50
2023-05-25T12:30:11.736Z,62.47
2023-05-25T12:32:54.909Z,61.76
2023-05-25T12:35:21.922Z,60.58
2023-05-25T12:37:48.574Z,60.02
2023-05-25T12:40:23.355Z,59.75
2023-05-25T12:42:57.240Z,59.81
2023-05-25T12:45:24.487Z,60.76
2023-05-25T12:47:51.474Z,61.38
2023-05-25T12:50:19.451Z,61.12
2023-05-25T12:52:46.876Z,60.39
2023-05-25T12:55:22.640Z,61.07
2023-05-25T12:57:55.231Z,61.19
2023-05-25T13:00:26.796Z,61.46
2023-05-25T13:02:54.087Z,61.54
2023-05-25T13:05:27.870Z,61.29
2023-05-25T13:07:56.763Z,62.05
2023-05-25T13:10:24.055Z,61.89
2023-05-25T13:12:51.959Z,62.65
2023-05-25T13:15:21.217Z,62.73
2023-05-25T13:17:48.668Z,63.45
2023-05-25T13:20:15.668Z,62.31
2023-05-25T13:22:43.642Z,59.69
2023-05-25T13:25:11.229Z,60.23
2023-05-25T13:27:38.114Z,61.45
2023-05-25T13:30:08.175Z,61.79
2023-05-25T13:32:34.946Z,60.66
2023-05-25T13:35:01.809Z,59.92
2023-05-25T13:37:28.764Z,59.78
2023-05-25T13:39:56.214Z,58.81
2023-05-25T13:42:23.180Z,59.90
2023-05-25T13:44:50.404Z,60.41
2023-05-25T13:47:17.143Z,61.58
2023-05-25T13:49:43.996Z,61.05
2023-05-25T13:52:11.137Z,61.40
2023-05-25T13:54:37.804Z,60.37
2023-05-25T13:57:04.478Z,61.37
2023-05-25T13:59:31.350Z,60.62
2023-05-25T14:01:58.141Z,61.81
2023-05-25T14:04:26.772Z,62.39
2023-05-25T14:06:56.127Z,61.69
2023-05-25T14:09:23.426Z,62.07
2023-05-25T14:11:50.147Z,61.72
2023-05-25T14:14:30.131Z,61.56
2023-05-25T14:16:57.899Z,62.22
2023-05-25T14:19:24.697Z,62.44
2023-05-25T14:22:03.848Z,62.57
2023-05-25T14:24:38.184Z,63.61
2023-05-25T14:27:05.041Z,62.97
2023-05-25T14:29:31.690Z,61.57
2023-05-25T14:31:58.505Z,62.73
2023-05-25T14:34:25.386Z,63.03
2023-05-25T14:36:52.007Z,63.12
2023-05-25T14:39:18.681Z,63.72
2023-05-25T14:41:45.402Z,64.14
2023-05-25T14:44:12.067Z,62.60
2023-05-25T14:46:38.856Z,63.97
2023-05-25T14:49:05.703Z,63.48
2023-05-25T14:51:32.383Z,64.39
2023-05-25T14:54:00.762Z,65.26
2023-05-25T14:56:31.061Z,64.83
2023-05-25T14:58:58.116Z,63.30
2023-05-25T15:01:25.675Z,63.49
2023-05-25T15:03:52.807Z,63.54
2023-05-25T15:06:19.712Z,64.36
2023-05-25T15:08:46.409Z,64.82
2023-05-25T15:11:13.291Z,65.61
2023-05-25T15:13:40.952Z,65.79
2023-05-25T15:16:11.428Z,65.83
2023-05-25T15:18:38.161Z,65.50
2023-05-25T15:21:04.838Z,65.46
2023-05-25T15:23:32.117Z,66.34
2023-05-25T15:26:03.344Z,66.82
2023-05-25T15:28:30.907Z,67.66
2023-05-25T15:30:58.563Z,67.28
2023-05-25T15:33:36.082Z,67.37
2023-05-25T15:36:06.654Z,67.78
2023-05-25T15:38:33.342Z,67.08
2023-05-25T15:41:00.180Z,67.62
2023-05-25T15:43:27.108Z,68.17
2023-05-25T15:45:53.818Z,67.79
2023-05-25T15:48:20.548Z,68.06
2023-05-25T15:50:47.436Z,67.48
2023-05-25T15:53:14.393Z,68.44
2023-05-25T15:55:41.241Z,67.39
2023-05-25T15:58:07.891Z,67.25
2023-05-25T16:00:34.623Z,67.68
2023-05-25T16:03:01.421Z,67.55
2023-05-25T16:05:29.876Z,67.81
2023-05-25T16:07:56.584Z,67.46
2023-05-25T16:10:23.210Z,68.16
2023-05-25T16:12:49.905Z,68.23
2023-05-25T16:15:16.966Z,68.46
2023-05-25T16:17:43.613Z,68.72
2023-05-25T16:20:10.529Z,69.07
2023-05-25T16:22:37.547Z,69.68
2023-05-25T16:25:05.015Z,69.78
2023-05-25T16:27:31.800Z,70.03
2023-05-25T16:29:58.527Z,69.28
2023-05-25T16:32:25.432Z,70.04
2023-05-25T16:34:55.203Z,69.26
2023-05-25T16:37:21.911Z,68.97
2023-05-25T16:39:48.723Z,69.75
2023-05-25T16:42:15.389Z,70.15
2023-05-25T16:44:42.085Z,70.72
2023-05-25T16:47:08.905Z,70.43
2023-05-25T16:49:35.633Z,71.12
2023-05-25T16:52:05.232Z,70.98
2023-05-25T16:54:31.873Z,71.74
2023-05-25T16:56:58.700Z,71.78
2023-05-25T16:59:25.353Z,72.28
2023-05-25T17:01:52.061Z,73.14
2023-05-25T17:04:18.842Z,72.92
2023-05-25T17:06:45.565Z,73.11
2023-05-25T17:09:12.210Z,73.29
2023-05-25T17:11:38.939Z,73.69
2023-05-25T17:14:06.181Z,73.85
2023-05-25T17:16:33.031Z,74.16
2023-05-25T17:18:59.712Z,73.42
2023-05-25T17:21:27.058Z,73.19
2023-05-25T17:23:53.732Z,72.73
2023-05-25T17:26:20.382Z,73.40
2023-05-25T17:28:47.116Z,74.21
2023-05-25T17:31:13.975Z,74.11
2023-05-25T17:33:40.649Z,74.32
2023-05-25T17:36:07.592Z,74.65
2023-05-25T17:38:37.012Z,74.91
2023-05-25T17:41:03.686Z,74.96
2023-05-25T17:43:30.553Z,75.00
2023-05-25T17:48:26.003Z,75.38
2023-05-25T17:50:52.657Z,75.42
2023-05-25T17:53:19.411Z,75.37
2023-05-25T17:55:46.296Z,75.42
2023-05-25T17:58:13.245Z,75.87
2023-05-25T18:00:40.076Z,75.88
2023-05-25T18:03:06.871Z,75.59
2023-05-25T18:05:33.586Z,75.70
2023-05-25T18:08:00.506Z,75.78
2023-05-25T18:10:27.216Z,75.71
2023-05-25T18:12:54.265Z,75.95
2023-05-25T18:15:21.816Z,75.52
2023-05-25T18:17:48.699Z,75.87
2023-05-25T18:20:15.797Z,76.15
2023-05-25T18:22:42.733Z,76.38
2023-05-25T18:25:09.642Z,76.42
2023-05-25T18:27:36.404Z,76.95
2023-05-25T18:30:03.108Z,77.09
2023-05-25T18:32:29.811Z,77.24
2023-05-25T18:34:57.340Z,77.15
2023-05-25T18:37:24.681Z,77.47
2023-05-25T18:39:51.449Z,77.50
2023-05-25T18:42:18.140Z,77.56
2023-05-25T18:44:44.927Z,77.51
2023-05-25T18:47:12.019Z,77.34
2023-05-25T18:49:38.996Z,77.56
2023-05-25T18:52:08.238Z,77.77
2023-05-25T18:54:34.939Z,77.52
2023-05-25T18:57:01.733Z,77.58
2023-05-25T18:59:28.806Z,77.59
2023-05-25T19:01:56.652Z,77.23
2023-05-25T19:04:23.463Z,77.44
2023-05-25T19:06:50.311Z,77.47
2023-05-25T19:09:17.480Z,77.33
2023-05-25T19:11:44.210Z,77.22
2023-05-25T19:14:10.956Z,76.70
2023-05-25T19:16:37.784Z,77.02
2023-05-25T19:19:04.716Z,76.91
2023-05-25T19:21:31.487Z,77.18
2023-05-25T19:23:58.296Z,77.12
2023-05-25T19:26:24.948Z,77.00
2023-05-25T19:28:51.626Z,76.58
2023-05-25T19:31:18.623Z,76.40
2023-05-25T19:33:45.551Z,76.21
2023-05-25T19:36:12.220Z,75.97
2023-05-25T19:38:41.816Z,76.33
2023-05-25T19:41:09.110Z,75.96
2023-05-25T19:43:36.238Z,75.75
2023-05-25T19:46:03.246Z,75.65
2023-05-25T19:48:30.237Z,75.74
2023-05-25T19:50:57.780Z,75.57
2023-05-25T19:53:24.723Z,75.43
2023-05-25T19:55:51.631Z,75.86
2023-05-25T19:58:18.320Z,76.03
2023-05-25T20:00:45.085Z,76.45
2023-05-25T20:03:12.049Z,76.28
2023-05-25T20:05:39.376Z,75.94
2023-05-25T20:08:06.168Z,76.32
2023-05-25T20:10:39.476Z,76.42
2023-05-25T20:13:07.528Z,75.71
2023-05-25T20:15:34.618Z,75.85
2023-05-25T20:18:02.326Z,75.98
2023-05-25T20:20:29.188Z,76.23
2023-05-25T20:23:04.191Z,76.13
2023-05-25T20:25:30.777Z,76.21
2023-05-25T20:27:57.397Z,76.50
2023-05-25T20:30:24.213Z,76.74
2023-05-25T20:32:50.979Z,76.73
2023-05-25T20:35:17.794Z,76.64
2023-05-25T20:37:44.830Z,76.28
2023-05-25T20:40:11.715Z,76.50
2023-05-25T20:42:38.382Z,76.59
2023-05-25T20:45:05.469Z,76.88
2023-05-25T20:47:32.223Z,76.14
2023-05-25T20:49:58.906Z,76.73
2023-05-25T20:52:25.919Z,76.86
2023-05-25T20:54:52.621Z,76.61
2023-05-25T20:57:19.388Z,76.77
2023-05-25T20:59:46.497Z,76.86
2023-05-25T21:02:13.511Z,77.22
2023-05-25T21:04:40.322Z,76.91
2023-05-25T21:07:07.354Z,77.09
2023-05-25T21:09:34.253Z,77.33
2023-05-25T21:12:02.157Z,77.20
2023-05-25T21:14:29.820Z,77.24
2023-05-25T21:16:56.909Z,77.37
2023-05-25T21:19:24.646Z,77.24
2023-05-25T21:21:51.870Z,77.26
2023-05-25T21:24:18.879Z,77.11
2023-05-25T21:26:45.615Z,77.31
2023-05-25T21:29:12.323Z,77.70
2023-05-25T21:31:39.211Z,77.65
2023-05-25T21:34:05.968Z,77.86
2023-05-25T21:36:32.762Z,77.66
2023-05-25T21:38:59.501Z,77.59
2023-05-25T21:41:27.295Z,77.94
2023-05-25T21:43:53.943Z,78.14
2023-05-25T21:46:20.646Z,77.92
2023-05-25T21:48:47.290Z,78.05
2023-05-25T21:51:14.094Z,78.32
2023-05-25T21:53:40.851Z,78.74
2023-05-25T21:56:10.135Z,78.65
2023-05-25T21:58:38.139Z,79.06
2023-05-25T22:01:06.306Z,79.30
2023-05-25T22:03:34.330Z,79.04
2023-05-25T22:06:01.919Z,79.67
2023-05-25T22:08:28.774Z,79.50
2023-05-25T22:10:55.943Z,79.23
2023-05-25T22:13:22.852Z,79.48
2023-05-25T22:15:49.797Z,79.83
2023-05-25T22:18:16.802Z,80.10
2023-05-25T22:20:43.566Z,79.82
2023-05-25T22:23:11.643Z,80.22
2023-05-25T22:25:38.504Z,80.33
2023-05-25T22:28:05.308Z,80.01
2023-05-25T22:30:32.286Z,79.96
2023-05-25T22:32:59.296Z,80.19
2023-05-25T22:35:26.167Z,79.75
2023-05-25T22:37:53.105Z,80.15
2023-05-25T22:40:20.108Z,79.75
2023-05-25T22:42:50.500Z,79.88
2023-05-25T22:45:18.345Z,80.25
2023-05-25T22:47:45.414Z,80.43
2023-05-25T22:50:12.654Z,80.76
2023-05-25T22:52:41.214Z,80.71
2023-05-25T22:55:09.079Z,80.49
2023-05-25T22:57:36.102Z,80.50
2023-05-25T23:00:04.703Z,80.74
2023-05-25T23:02:31.709Z,80.46
2023-05-25T23:04:58.717Z,80.77
2023-05-25T23:07:25.763Z,80.45
2023-05-25T23:09:53.162Z,80.44
2023-05-25T23:12:20.158Z,80.68
2023-05-25T23:14:47.172Z,80.65
2023-05-25T23:17:14.343Z,80.44
2023-05-25T23:19:41.417Z,80.78
2023-05-25T23:22:08.348Z,81.07
2023-05-25T23:24:35.361Z,80.83
2023-05-25T23:27:02.972Z,80.71
2023-05-25T23:29:30.117Z,80.76
2023-05-25T23:31:57.172Z,80.59
2023-05-25T23:34:24.146Z,80.45
2023-05-25T23:36:54.169Z,80.75
2023-05-25T23:39:21.836Z,80.40
2023-05-25T23:41:48.720Z,80.27
2023-05-25T23:44:15.955Z,80.25
2023-05-25T23:46:42.876Z,80.60
2023-05-25T23:49:09.714Z,80.20
2023-05-25T23:51:36.763Z,80.39
2023-05-25T23:54:03.861Z,80.47
2023-05-25T23:56:32.769Z,80.46
2023-05-25T23:58:59.865Z,80.40
